Terminal Aerodrome Forecast
Issued by NWS

Home | Current Version | Previous Version | Text Only | Print | Product List | Glossary On
Versions: 1 2 3 4 5 6 7 8 9 10 11 12 13
868
FTUS44 KEWX 301131
TAFSSF
TAF
KSSF 301131Z 3012/0112 36005KT P6SM FEW250
     FM301600 05005KT P6SM FEW250
     FM010600 VRB03KT P6SM BKN200=

USA.gov is the U.S. government's official web portal to all federal, state and local government web resources and services.